Time;durP1;ratioP1;P1;durP2;ratioP2;P2;SDS_P1;SDS_P2;PMS_P1;PMS_P2;Temp;Humidity;BMP_temperature;BMP_pressure;BME280_temperature;BME280_humidity;BME280_pressure;Samples;Min_cycle;Max_cycle;Signal;HPM_P1;HPM_P2
2024/03/20 00:00:17;;;;;;;;;;;21.60;41.40;;;;;;3028258;19;13575;-27
2024/03/20 00:01:18;;;;;;;;;;;21.60;41.20;;;;;;3050965;19;4790;-24
2024/03/20 00:02:18;;;;;;;;;;;21.60;41.30;;;;;;3051433;19;4676;-25
2024/03/20 00:03:19;;;;;;;;;;;21.60;41.20;;;;;;3028620;19;4679;-24
2024/03/20 00:04:20;;;;;;;;;;;21.60;41.30;;;;;;3050756;19;4727;-25
2024/03/20 00:05:20;;;;;;;;;;;21.60;41.20;;;;;;3028308;19;4706;-26
2024/03/20 00:06:21;;;;;;;;;;;21.60;41.30;;;;;;3050953;19;4804;-26
2024/03/20 00:07:22;;;;;;;;;;;21.60;41.20;;;;;;3049496;19;4769;-24
2024/03/20 00:08:22;;;;;;;;;;;21.60;41.20;;;;;;3029799;19;4581;-28
2024/03/20 00:09:23;;;;;;;;;;;21.60;41.50;;;;;;3049784;19;4703;-25
2024/03/20 00:10:24;;;;;;;;;;;21.60;41.30;;;;;;3050628;19;4736;-26
2024/03/20 00:11:24;;;;;;;;;;;21.60;41.30;;;;;;3029455;19;4638;-25
2024/03/20 00:12:25;;;;;;;;;;;21.50;41.30;;;;;;3050586;19;4716;-24
2024/03/20 00:13:26;;;;;;;;;;;21.60;41.30;;;;;;3027995;19;4695;-26
2024/03/20 00:14:27;;;;;;;;;;;21.60;41.30;;;;;;3048771;19;4726;-24
2024/03/20 00:15:29;;;;;;;;;;;21.60;41.20;;;;;;3050402;19;4669;-25
2024/03/20 00:16:30;;;;;;;;;;;21.60;41.20;;;;;;3028934;19;4530;-24
2024/03/20 00:17:31;;;;;;;;;;;21.60;41.20;;;;;;3049565;19;4716;-23
2024/03/20 00:18:31;;;;;;;;;;;21.50;41.20;;;;;;3029117;19;4827;-24
2024/03/20 00:19:32;;;;;;;;;;;21.60;41.20;;;;;;3049598;19;4688;-25
2024/03/20 00:20:33;;;;;;;;;;;21.50;41.10;;;;;;3049880;19;4683;-28
2024/03/20 00:21:36;;;;;;;;;;;21.50;41.20;;;;;;3028764;19;4840;-26
2024/03/20 00:22:37;;;;;;;;;;;21.50;41.20;;;;;;3049956;19;4773;-25
2024/03/20 00:23:38;;;;;;;;;;;21.50;41.20;;;;;;3049990;19;4767;-25
2024/03/20 00:24:38;;;;;;;;;;;21.60;41.30;;;;;;3027867;19;4630;-25
2024/03/20 00:25:39;;;;;;;;;;;20.80;40.80;;;;;;3049922;19;4731;-27
2024/03/20 00:26:40;;;;;;;;;;;21.50;41.20;;;;;;3029145;19;4844;-25
2024/03/20 00:27:40;;;;;;;;;;;21.40;41.90;;;;;;3048775;19;4724;-26
2024/03/20 00:28:41;;;;;;;;;;;21.50;41.30;;;;;;3050188;19;4745;-27
2024/03/20 00:29:42;;;;;;;;;;;21.50;41.20;;;;;;3027935;19;4819;-27
2024/03/20 00:30:42;;;;;;;;;;;21.50;41.30;;;;;;3050031;19;4697;-25
2024/03/20 00:31:43;;;;;;;;;;;21.40;41.20;;;;;;3050477;19;4982;-27
2024/03/20 00:32:43;;;;;;;;;;;21.40;41.20;;;;;;3027352;19;4756;-28
2024/03/20 00:33:44;;;;;;;;;;;21.40;41.20;;;;;;3049501;19;4690;-30
2024/03/20 00:34:45;;;;;;;;;;;21.40;41.20;;;;;;3028912;19;4665;-31
2024/03/20 00:35:45;;;;;;;;;;;21.40;41.20;;;;;;3049073;19;4710;-34
2024/03/20 00:36:46;;;;;;;;;;;21.40;41.20;;;;;;3050060;19;4829;-30
2024/03/20 00:37:47;;;;;;;;;;;21.40;41.20;;;;;;3028104;19;4518;-32
2024/03/20 00:38:47;;;;;;;;;;;21.40;41.20;;;;;;3048587;19;4680;-30
2024/03/20 00:39:48;;;;;;;;;;;21.40;41.20;;;;;;3050857;19;4705;-29
2024/03/20 00:40:49;;;;;;;;;;;21.40;41.30;;;;;;3028452;19;4526;-33
2024/03/20 00:41:49;;;;;;;;;;;21.40;41.30;;;;;;3048355;19;4694;-32
2024/03/20 00:42:50;;;;;;;;;;;21.40;41.20;;;;;;3028711;19;4707;-29
2024/03/20 00:43:51;;;;;;;;;;;21.40;41.20;;;;;;3049292;19;4631;-31
2024/03/20 00:44:52;;;;;;;;;;;21.40;41.20;;;;;;3049352;19;4738;-31
2024/03/20 00:45:52;;;;;;;;;;;21.40;41.20;;;;;;3027596;19;4848;-32
2024/03/20 00:46:53;;;;;;;;;;;21.40;41.20;;;;;;3049000;19;4641;-29
2024/03/20 00:47:54;;;;;;;;;;;21.40;41.20;;;;;;3026906;19;4680;-29
2024/03/20 00:48:55;;;;;;;;;;;21.40;41.20;;;;;;3049280;19;4706;-32
2024/03/20 00:49:56;;;;;;;;;;;21.30;41.20;;;;;;3047798;19;4884;-30
2024/03/20 00:50:56;;;;;;;;;;;21.40;41.30;;;;;;3028532;19;4625;-32
2024/03/20 00:51:57;;;;;;;;;;;21.30;41.90;;;;;;3049829;19;4730;-31
2024/03/20 00:52:58;;;;;;;;;;;21.40;41.20;;;;;;3050980;19;4725;-31
2024/03/20 00:53:59;;;;;;;;;;;21.30;41.20;;;;;;3029191;19;4684;-29
2024/03/20 00:54:59;;;;;;;;;;;21.40;41.20;;;;;;3052691;19;4683;-29
2024/03/20 00:56:00;;;;;;;;;;;21.30;41.20;;;;;;3031683;19;4763;-32
2024/03/20 00:57:01;;;;;;;;;;;21.30;41.20;;;;;;3053303;19;4793;-32
2024/03/20 00:58:01;;;;;;;;;;;21.40;41.20;;;;;;3053101;19;4714;-34
2024/03/20 00:59:04;;;;;;;;;;;21.30;41.20;;;;;;3031983;19;4625;-34
2024/03/20 01:00:05;;;;;;;;;;;21.40;41.20;;;;;;3050886;19;4820;-33
2024/03/20 01:01:06;;;;;;;;;;;21.30;41.10;;;;;;3053359;19;4661;-32
2024/03/20 01:02:06;;;;;;;;;;;21.30;41.00;;;;;;3030907;19;4596;-32
2024/03/20 01:03:07;;;;;;;;;;;21.30;41.10;;;;;;3051558;19;8737;-30
2024/03/20 01:04:09;;;;;;;;;;;21.30;41.10;;;;;;3032231;19;4164;-31
2024/03/20 01:05:12;;;;;;;;;;;21.30;41.10;;;;;;3052414;19;4792;-33
2024/03/20 01:06:13;;;;;;;;;;;21.90;41.50;;;;;;3053524;19;4753;-32
2024/03/20 01:07:14;;;;;;;;;;;21.30;41.20;;;;;;3029428;19;4632;-31
2024/03/20 01:08:15;;;;;;;;;;;21.30;41.20;;;;;;3051697;19;4684;-34
2024/03/20 01:09:15;;;;;;;;;;;21.30;41.20;;;;;;3030766;19;4710;-31
2024/03/20 01:10:17;;;;;;;;;;;21.30;41.10;;;;;;3052044;19;4821;-33
2024/03/20 01:11:18;;;;;;;;;;;21.30;41.10;;;;;;3053074;19;4963;-31
2024/03/20 01:12:18;;;;;;;;;;;21.30;41.10;;;;;;3030573;19;4574;-34
2024/03/20 01:13:19;;;;;;;;;;;21.20;41.10;;;;;;3052252;19;4849;-32
2024/03/20 01:14:20;;;;;;;;;;;21.20;41.10;;;;;;3051744;19;4732;-31
2024/03/20 01:15:20;;;;;;;;;;;21.30;41.20;;;;;;3029764;19;4600;-33
2024/03/20 01:16:21;;;;;;;;;;;21.20;41.10;;;;;;3052563;19;4731;-31
2024/03/20 01:17:22;;;;;;;;;;;21.20;41.20;;;;;;3031062;19;4711;-29
2024/03/20 01:18:23;;;;;;;;;;;21.20;41.10;;;;;;3052438;19;4687;-31
2024/03/20 01:19:26;;;;;;;;;;;21.20;41.10;;;;;;3051716;19;4674;-31
2024/03/20 01:20:27;;;;;;;;;;;21.10;41.10;;;;;;3031638;19;4624;-31
2024/03/20 01:21:27;;;;;;;;;;;21.20;41.10;;;;;;3051801;19;4669;-31
2024/03/20 01:22:31;;;;;;;;;;;21.20;41.10;;;;;;3052718;19;4749;-30
2024/03/20 01:23:32;;;;;;;;;;;21.10;41.10;;;;;;3029565;19;4612;-31
2024/03/20 01:24:33;;;;;;;;;;;21.10;41.20;;;;;;3052764;19;4976;-24
2024/03/20 01:25:33;;;;;;;;;;;21.10;41.10;;;;;;3030575;19;4718;-26
2024/03/20 01:26:34;;;;;;;;;;;21.20;41.10;;;;;;3051698;19;4686;-24
2024/03/20 01:27:35;;;;;;;;;;;21.10;41.80;;;;;;3051219;19;4792;-26
2024/03/20 01:28:35;;;;;;;;;;;21.10;41.20;;;;;;3029469;19;4654;-24
2024/03/20 01:29:36;;;;;;;;;;;21.10;41.20;;;;;;3051223;19;4764;-24
2024/03/20 01:30:36;;;;;;;;;;;21.10;41.20;;;;;;3029175;19;4667;-25
2024/03/20 01:31:37;;;;;;;;;;;21.10;41.20;;;;;;3051419;19;4768;-25
2024/03/20 01:32:38;;;;;;;;;;;21.10;41.20;;;;;;3050948;19;4690;-25
2024/03/20 01:33:38;;;;;;;;;;;21.10;41.20;;;;;;3029636;19;4682;-24
2024/03/20 01:34:39;;;;;;;;;;;21.20;41.20;;;;;;3050604;19;4758;-27
2024/03/20 01:35:39;;;;;;;;;;;21.10;41.20;;;;;;3052541;19;4696;-26
2024/03/20 01:36:40;;;;;;;;;;;21.10;41.20;;;;;;3030545;19;4703;-26
2024/03/20 01:37:41;;;;;;;;;;;21.10;41.10;;;;;;3052870;19;5028;-26
2024/03/20 01:38:41;;;;;;;;;;;21.10;41.10;;;;;;3029855;19;4684;-24
2024/03/20 01:39:42;;;;;;;;;;;21.10;41.10;;;;;;3051335;19;4718;-26
2024/03/20 01:40:43;;;;;;;;;;;21.10;41.00;;;;;;3051434;19;4688;-28
2024/03/20 01:41:44;;;;;;;;;;;21.10;41.00;;;;;;3028879;19;4684;-27
2024/03/20 01:42:44;;;;;;;;;;;21.20;41.00;;;;;;3050128;19;4684;-27
2024/03/20 01:43:54;;;;;;;;;;;21.10;40.90;;;;;;3051643;19;4818;-24
2024/03/20 01:45:12;;;;;;;;;;;21.10;40.90;;;;;;3029703;19;4577;-32
2024/03/20 01:46:25;;;;;;;;;;;21.10;41.00;;;;;;3051981;19;4658;-33
2024/03/20 01:47:26;;;;;;;;;;;21.10;41.00;;;;;;3029812;19;4687;-29
2024/03/20 01:48:26;;;;;;;;;;;21.10;41.10;;;;;;3052446;19;4702;-31
2024/03/20 01:49:27;;;;;;;;;;;21.10;41.70;;;;;;3029194;19;4683;-30
2024/03/20 01:50:28;;;;;;;;;;;21.10;41.10;;;;;;3051800;19;4659;-30
2024/03/20 01:51:28;;;;;;;;;;;21.00;41.10;;;;;;3051441;19;4792;-29
2024/03/20 01:52:29;;;;;;;;;;;21.00;41.10;;;;;;3030067;19;4540;-33
2024/03/20 01:53:30;;;;;;;;;;;21.00;41.10;;;;;;3051244;19;4738;-33
2024/03/20 01:54:31;;;;;;;;;;;22.10;41.70;;;;;;3031005;19;4708;-32
2024/03/20 01:55:32;;;;;;;;;;;21.10;41.20;;;;;;3050505;19;4681;-32
2024/03/20 01:56:35;;;;;;;;;;;21.00;41.00;;;;;;3050699;19;4678;-30
2024/03/20 01:57:36;;;;;;;;;;;21.00;41.00;;;;;;3031151;19;4653;-30
2024/03/20 01:58:36;;;;;;;;;;;21.00;41.00;;;;;;3048738;19;4726;-32
2024/03/20 01:59:37;;;;;;;;;;;21.00;41.20;;;;;;3052657;19;4713;-30
2024/03/20 02:00:37;;;;;;;;;;;21.00;41.20;;;;;;3028417;19;4757;-31
2024/03/20 02:01:38;;;;;;;;;;;21.00;41.20;;;;;;3052124;19;5036;-30
2024/03/20 02:02:43;;;;;;;;;;;21.00;41.10;;;;;;3028300;19;4790;-32
2024/03/20 02:03:43;;;;;;;;;;;21.00;41.20;;;;;;3051205;19;4684;-33
2024/03/20 02:04:44;;;;;;;;;;;21.00;41.10;;;;;;3050430;19;4739;-25
2024/03/20 02:05:45;;;;;;;;;;;21.00;41.20;;;;;;3030990;19;4690;-27
2024/03/20 02:06:45;;;;;;;;;;;21.00;41.20;;;;;;3049623;19;4754;-29
2024/03/20 02:07:46;;;;;;;;;;;20.90;41.20;;;;;;3053097;19;4789;-28
2024/03/20 02:08:47;;;;;;;;;;;20.90;41.30;;;;;;3028584;19;4581;-27
2024/03/20 02:09:47;;;;;;;;;;;21.00;41.20;;;;;;3051972;19;4720;-27
2024/03/20 02:10:48;;;;;;;;;;;20.90;41.10;;;;;;3030655;19;4640;-24
2024/03/20 02:11:49;;;;;;;;;;;20.90;41.30;;;;;;3052204;19;4847;-24
2024/03/20 02:13:16;;;;;;;;;;;20.90;41.30;;;;;;3052284;19;4678;-26
2024/03/20 02:14:16;;;;;;;;;;;20.90;41.20;;;;;;3028533;19;21410;-32
2024/03/20 02:15:17;;;;;;;;;;;20.90;41.20;;;;;;3050814;19;4673;-30
2024/03/20 02:16:18;;;;;;;;;;;20.90;41.30;;;;;;3031022;19;4737;-31
2024/03/20 02:17:19;;;;;;;;;;;20.90;41.30;;;;;;3049588;19;4596;-31
2024/03/20 02:18:19;;;;;;;;;;;20.90;41.40;;;;;;3051169;19;4716;-33
2024/03/20 02:19:20;;;;;;;;;;;20.90;41.20;;;;;;3028354;19;4707;-30
2024/03/20 02:20:21;;;;;;;;;;;20.90;41.30;;;;;;3051149;19;4681;-33
2024/03/20 02:21:22;;;;;;;;;;;20.90;41.40;;;;;;3029416;19;4682;-32
2024/03/20 02:22:22;;;;;;;;;;;20.90;41.10;;;;;;3050154;19;4710;-30
2024/03/20 02:23:23;;;;;;;;;;;21.40;41.60;;;;;;3050388;19;4680;-30
2024/03/20 02:24:23;;;;;;;;;;;20.90;41.30;;;;;;3030303;19;4699;-30
2024/03/20 02:25:28;;;;;;;;;;;20.90;41.20;;;;;;3050671;19;4695;-32
2024/03/20 02:26:28;;;;;;;;;;;20.90;41.30;;;;;;3052418;19;4734;-31
2024/03/20 02:27:29;;;;;;;;;;;20.90;41.40;;;;;;3028037;19;4754;-33
2024/03/20 02:28:30;;;;;;;;;;;20.90;41.20;;;;;;3049233;19;4702;-33
2024/03/20 02:29:30;;;;;;;;;;;20.90;41.30;;;;;;3029117;19;4845;-34
2024/03/20 02:30:31;;;;;;;;;;;20.90;41.40;;;;;;3050045;19;4700;-32
2024/03/20 02:31:33;;;;;;;;;;;20.90;41.50;;;;;;3052771;19;4819;-30
2024/03/20 02:32:33;;;;;;;;;;;20.90;41.40;;;;;;3030085;19;4662;-32
2024/03/20 02:33:34;;;;;;;;;;;20.90;41.50;;;;;;3050637;19;5378;-32
2024/03/20 02:34:35;;;;;;;;;;;20.90;41.30;;;;;;3027902;19;4676;-30
2024/03/20 02:35:36;;;;;;;;;;;20.80;41.50;;;;;;3049864;19;4662;-32
2024/03/20 02:36:36;;;;;;;;;;;20.80;41.40;;;;;;3050405;19;4673;-34
2024/03/20 02:37:37;;;;;;;;;;;20.80;41.40;;;;;;3030894;19;4766;-34
2024/03/20 02:38:38;;;;;;;;;;;20.80;41.40;;;;;;3050062;19;4824;-32
2024/03/20 02:39:39;;;;;;;;;;;20.80;41.60;;;;;;3052126;19;4864;-35
2024/03/20 02:40:39;;;;;;;;;;;20.80;41.60;;;;;;3028640;19;4599;-30
2024/03/20 02:41:40;;;;;;;;;;;20.80;41.40;;;;;;3049118;19;4682;-30
2024/03/20 02:42:41;;;;;;;;;;;20.80;41.50;;;;;;3028789;19;4734;-32
2024/03/20 02:43:41;;;;;;;;;;;20.80;41.50;;;;;;3049504;19;4824;-30
2024/03/20 02:44:43;;;;;;;;;;;20.80;41.50;;;;;;3050152;19;4745;-30
2024/03/20 02:45:44;;;;;;;;;;;20.80;41.60;;;;;;3031257;19;4708;-30
2024/03/20 02:46:44;;;;;;;;;;;20.80;41.60;;;;;;3048263;19;4688;-32
2024/03/20 02:47:45;;;;;;;;;;;20.80;41.70;;;;;;3050086;19;4775;-31
2024/03/20 02:48:46;;;;;;;;;;;20.80;41.50;;;;;;3028617;19;4581;-30
2024/03/20 02:49:50;;;;;;;;;;;20.70;41.60;;;;;;3050544;19;4724;-32
2024/03/20 02:50:52;;;;;;;;;;;20.80;41.60;;;;;;3030003;19;4685;-31
2024/03/20 02:51:53;;;;;;;;;;;20.70;41.60;;;;;;3049093;19;4710;-31
2024/03/20 02:52:55;;;;;;;;;;;20.70;41.50;;;;;;3052826;19;4641;-30
2024/03/20 02:53:56;;;;;;;;;;;20.70;41.60;;;;;;3028023;19;4719;-30
2024/03/20 02:54:57;;;;;;;;;;;20.80;41.60;;;;;;3051972;19;4634;-33
2024/03/20 02:55:57;;;;;;;;;;;20.70;41.60;;;;;;3029463;19;4641;-33
2024/03/20 02:56:58;;;;;;;;;;;20.70;41.60;;;;;;3048170;19;4693;-30
2024/03/20 02:57:59;;;;;;;;;;;20.70;41.60;;;;;;3052635;19;4788;-31
2024/03/20 02:59:00;;;;;;;;;;;20.70;41.50;;;;;;3028978;19;4749;-32
2024/03/20 03:00:00;;;;;;;;;;;20.70;41.50;;;;;;3049579;19;4793;-32
2024/03/20 03:01:01;;;;;;;;;;;20.70;41.60;;;;;;3049396;19;4687;-31
2024/03/20 03:02:02;;;;;;;;;;;20.70;41.50;;;;;;3027673;19;4702;-33
2024/03/20 03:03:03;;;;;;;;;;;20.70;41.60;;;;;;3052448;19;4638;-32
2024/03/20 03:04:03;;;;;;;;;;;20.70;41.60;;;;;;3028465;19;4660;-32
2024/03/20 03:05:04;;;;;;;;;;;20.70;41.50;;;;;;3051540;19;4652;-24
2024/03/20 03:06:05;;;;;;;;;;;20.70;41.60;;;;;;3051531;19;4657;-24
2024/03/20 03:07:05;;;;;;;;;;;20.70;41.50;;;;;;3028341;19;4643;-26
2024/03/20 03:08:06;;;;;;;;;;;20.70;41.60;;;;;;3050072;19;4523;-25
2024/03/20 03:09:08;;;;;;;;;;;20.70;41.50;;;;;;3050209;19;4587;-25
2024/03/20 03:10:10;;;;;;;;;;;20.70;41.70;;;;;;3045475;19;5923;-25
2024/03/20 03:11:11;;;;;;;;;;;20.70;41.70;;;;;;3049236;19;4680;-26
2024/03/20 03:12:11;;;;;;;;;;;20.70;41.60;;;;;;3029855;19;4546;-25
2024/03/20 03:13:12;;;;;;;;;;;20.70;41.60;;;;;;3049748;19;4885;-28
2024/03/20 03:14:14;;;;;;;;;;;20.70;41.50;;;;;;3050235;19;4821;-27
2024/03/20 03:15:15;;;;;;;;;;;20.70;41.70;;;;;;3027420;19;4664;-25
2024/03/20 03:16:16;;;;;;;;;;;20.70;41.70;;;;;;3049465;19;4687;-26
2024/03/20 03:17:16;;;;;;;;;;;20.70;41.70;;;;;;3029498;19;4655;-26
2024/03/20 03:18:19;;;;;;;;;;;20.70;41.60;;;;;;3049506;19;4961;-24
2024/03/20 03:19:19;;;;;;;;;;;20.70;41.60;;;;;;3051767;19;4688;-24
2024/03/20 03:20:23;;;;;;;;;;;20.60;41.60;;;;;;3028113;19;4636;-26
2024/03/20 03:21:24;;;;;;;;;;;20.60;41.60;;;;;;3051673;19;4725;-28
2024/03/20 03:22:24;;;;;;;;;;;20.60;41.80;;;;;;3050928;19;4742;-24
2024/03/20 03:23:25;;;;;;;;;;;20.60;41.80;;;;;;3030680;19;4678;-25
2024/03/20 03:24:26;;;;;;;;;;;20.60;41.80;;;;;;3048875;19;4879;-27
2024/03/20 03:25:26;;;;;;;;;;;20.60;41.90;;;;;;3030166;19;4570;-24
2024/03/20 03:26:27;;;;;;;;;;;20.60;41.80;;;;;;3049380;19;4899;-27
2024/03/20 03:27:27;;;;;;;;;;;20.60;42.10;;;;;;3051075;19;4767;-25
2024/03/20 03:28:28;;;;;;;;;;;20.60;41.70;;;;;;3027983;19;5250;-25
2024/03/20 03:29:29;;;;;;;;;;;20.60;41.90;;;;;;3049817;19;4648;-24
2024/03/20 03:30:30;;;;;;;;;;;20.60;41.80;;;;;;3041371;19;4725;-27
2024/03/20 03:31:32;;;;;;;;;;;20.60;41.70;;;;;;3047349;19;4745;-25
2024/03/20 03:32:33;;;;;;;;;;;20.60;41.70;;;;;;3051346;19;4698;-27
2024/03/20 03:33:33;;;;;;;;;;;20.60;41.70;;;;;;3028665;19;4706;-26
2024/03/20 03:34:34;;;;;;;;;;;20.60;41.70;;;;;;3050202;19;4718;-29
2024/03/20 03:35:35;;;;;;;;;;;20.60;41.80;;;;;;3048269;19;4731;-32
2024/03/20 03:36:35;;;;;;;;;;;20.60;41.90;;;;;;3030094;19;4814;-33
2024/03/20 03:37:36;;;;;;;;;;;20.60;41.80;;;;;;3049060;19;4687;-32
2024/03/20 03:38:36;;;;;;;;;;;20.60;42.50;;;;;;3028423;19;4828;-32
2024/03/20 03:39:37;;;;;;;;;;;20.60;41.80;;;;;;3048693;19;4668;-31
2024/03/20 03:40:38;;;;;;;;;;;20.60;41.90;;;;;;3050691;19;4660;-34
2024/03/20 03:41:38;;;;;;;;;;;20.60;41.70;;;;;;3027786;19;4713;-33
2024/03/20 03:42:39;;;;;;;;;;;20.60;41.80;;;;;;3049981;19;4736;-30
2024/03/20 03:43:40;;;;;;;;;;;20.60;41.90;;;;;;3048264;19;4700;-30
2024/03/20 03:44:41;;;;;;;;;;;20.60;41.70;;;;;;3027075;19;4626;-34
2024/03/20 03:45:42;;;;;;;;;;;20.60;41.90;;;;;;3050521;19;4715;-30
2024/03/20 03:46:42;;;;;;;;;;;20.60;41.80;;;;;;3028000;19;4698;-32
2024/03/20 03:47:43;;;;;;;;;;;20.70;41.70;;;;;;3050384;19;4767;-34
2024/03/20 03:48:44;;;;;;;;;;;20.70;41.70;;;;;;3050015;19;4945;-31
2024/03/20 03:49:45;;;;;;;;;;;20.80;41.70;;;;;;3028086;19;4896;-31
2024/03/20 03:50:48;;;;;;;;;;;20.80;41.50;;;;;;3050986;19;4687;-31
2024/03/20 03:51:49;;;;;;;;;;;20.80;41.40;;;;;;3046144;19;4873;-30
2024/03/20 03:52:50;;;;;;;;;;;20.80;41.30;;;;;;3038984;19;4702;-31
2024/03/20 03:53:50;;;;;;;;;;;20.80;41.40;;;;;;3050676;19;4663;-33
2024/03/20 03:54:51;;;;;;;;;;;20.80;41.40;;;;;;3028726;19;4721;-31
2024/03/20 03:55:52;;;;;;;;;;;20.80;41.30;;;;;;3048944;19;4742;-34
2024/03/20 03:56:52;;;;;;;;;;;20.90;41.20;;;;;;3050903;19;4833;-30
2024/03/20 03:57:53;;;;;;;;;;;21.00;41.20;;;;;;3028874;19;4806;-33
2024/03/20 03:58:54;;;;;;;;;;;21.00;41.70;;;;;;3051091;19;4612;-31
2024/03/20 03:59:54;;;;;;;;;;;21.10;40.90;;;;;;3029057;19;5140;-30
2024/03/20 04:00:55;;;;;;;;;;;21.10;40.80;;;;;;3050416;19;4684;-31
2024/03/20 04:01:56;;;;;;;;;;;21.10;40.80;;;;;;3050369;19;4672;-33
2024/03/20 04:02:56;;;;;;;;;;;21.10;40.70;;;;;;3028696;19;4653;-31
2024/03/20 04:03:57;;;;;;;;;;;21.20;40.70;;;;;;3048803;19;4898;-31
2024/03/20 04:04:58;;;;;;;;;;;21.20;40.70;;;;;;3050450;19;4676;-31
2024/03/20 04:05:59;;;;;;;;;;;21.20;40.70;;;;;;3028892;19;4600;-34
2024/03/20 04:07:00;;;;;;;;;;;21.20;40.70;;;;;;3049266;19;4695;-32
2024/03/20 04:08:01;;;;;;;;;;;21.20;40.60;;;;;;3029331;19;4799;-33
2024/03/20 04:09:02;;;;;;;;;;;21.20;40.60;;;;;;3049259;19;4655;-31
2024/03/20 04:10:03;;;;;;;;;;;21.20;40.60;;;;;;3049854;19;4695;-29
2024/03/20 04:11:04;;;;;;;;;;;21.20;40.60;;;;;;3029478;19;4660;-31
2024/03/20 04:12:05;;;;;;;;;;;21.30;40.60;;;;;;3049926;19;4627;-32
2024/03/20 04:13:06;;;;;;;;;;;21.30;40.50;;;;;;3051015;19;4569;-32
2024/03/20 04:14:07;;;;;;;;;;;21.30;40.40;;;;;;3027724;19;20779;-31
2024/03/20 04:15:08;;;;;;;;;;;21.30;40.30;;;;;;3049828;19;4681;-30
2024/03/20 04:16:08;;;;;;;;;;;21.40;40.30;;;;;;3027197;19;4618;-31
2024/03/20 04:17:09;;;;;;;;;;;21.40;40.20;;;;;;3050073;19;1069;-33
2024/03/20 04:18:09;;;;;;;;;;;21.40;40.80;;;;;;3049794;19;4703;-30
2024/03/20 04:19:10;;;;;;;;;;;21.40;40.20;;;;;;3028991;19;4614;-35
2024/03/20 04:20:11;;;;;;;;;;;21.40;40.20;;;;;;3049499;19;4736;-30
2024/03/20 04:21:11;;;;;;;;;;;21.40;40.20;;;;;;3026717;19;4712;-30
2024/03/20 04:22:12;;;;;;;;;;;21.40;40.10;;;;;;3049244;19;4790;-31
2024/03/20 04:23:13;;;;;;;;;;;21.30;40.10;;;;;;3048613;19;4700;-31
2024/03/20 04:24:13;;;;;;;;;;;21.40;40.10;;;;;;3028262;19;4828;-30
2024/03/20 04:25:14;;;;;;;;;;;21.40;40.10;;;;;;3050636;19;1071;-32
2024/03/20 04:26:15;;;;;;;;;;;21.40;40.00;;;;;;3051883;19;4776;-31
2024/03/20 04:27:15;;;;;;;;;;;21.40;39.90;;;;;;3029858;19;4593;-31
2024/03/20 04:28:16;;;;;;;;;;;21.50;39.90;;;;;;3052010;19;4701;-32
2024/03/20 04:29:16;;;;;;;;;;;21.50;39.80;;;;;;3031459;19;4703;-32
2024/03/20 04:30:17;;;;;;;;;;;21.50;39.70;;;;;;3053053;19;4762;-32
2024/03/20 04:31:18;;;;;;;;;;;21.50;39.60;;;;;;3052536;19;4692;-33
2024/03/20 04:32:19;;;;;;;;;;;21.60;39.70;;;;;;3031904;19;5128;-30
2024/03/20 04:33:20;;;;;;;;;;;21.60;39.70;;;;;;3052246;19;4797;-36
2024/03/20 04:34:20;;;;;;;;;;;21.60;39.60;;;;;;3053036;19;4711;-33
2024/03/20 04:35:21;;;;;;;;;;;21.60;39.70;;;;;;3031183;19;4587;-31
2024/03/20 04:36:22;;;;;;;;;;;21.60;39.70;;;;;;3053420;19;4775;-30
2024/03/20 04:37:22;;;;;;;;;;;21.50;39.60;;;;;;3032041;19;4702;-32
2024/03/20 04:38:23;;;;;;;;;;;21.60;39.70;;;;;;3051651;19;4713;-33
2024/03/20 04:39:30;;;;;;;;;;;21.50;39.70;;;;;;3051654;19;4801;-30
2024/03/20 04:40:31;;;;;;;;;;;21.50;39.60;;;;;;3032174;19;4891;-29
2024/03/20 04:41:32;;;;;;;;;;;21.50;39.70;;;;;;3052203;19;4698;-29
2024/03/20 04:42:36;;;;;;;;;;;21.50;39.80;;;;;;3030738;19;4703;-32
2024/03/20 04:43:36;;;;;;;;;;;21.50;39.50;;;;;;3053010;19;4694;-33
2024/03/20 04:44:37;;;;;;;;;;;21.50;39.50;;;;;;3050888;19;4676;-33
2024/03/20 04:45:38;;;;;;;;;;;21.50;39.40;;;;;;3030599;19;4676;-34
2024/03/20 04:46:38;;;;;;;;;;;21.50;39.50;;;;;;3052573;19;4720;-26
2024/03/20 04:47:39;;;;;;;;;;;21.50;39.50;;;;;;3052176;19;4693;-24
2024/03/20 04:48:39;;;;;;;;;;;21.60;39.50;;;;;;3030573;19;4707;-25
2024/03/20 04:49:40;;;;;;;;;;;21.60;39.50;;;;;;3053062;19;4724;-29
2024/03/20 04:50:41;;;;;;;;;;;21.60;39.50;;;;;;3030672;19;4718;-24
2024/03/20 04:51:41;;;;;;;;;;;21.60;39.40;;;;;;3052137;19;4745;-25
2024/03/20 04:52:42;;;;;;;;;;;21.70;39.30;;;;;;3051924;19;4844;-25
2024/03/20 04:53:42;;;;;;;;;;;21.70;39.20;;;;;;3030175;19;4687;-24
2024/03/20 04:54:43;;;;;;;;;;;21.70;39.10;;;;;;3051539;19;4764;-24
2024/03/20 04:55:44;;;;;;;;;;;21.70;39.00;;;;;;3052352;19;4745;-24
2024/03/20 04:56:44;;;;;;;;;;;21.70;39.00;;;;;;3030696;19;4534;-31
2024/03/20 04:57:45;;;;;;;;;;;21.80;39.00;;;;;;3053220;19;4723;-34
2024/03/20 04:58:46;;;;;;;;;;;21.80;38.90;;;;;;3031424;19;4757;-33
2024/03/20 04:59:46;;;;;;;;;;;21.80;38.80;;;;;;3052298;19;4695;-34
2024/03/20 05:00:47;;;;;;;;;;;21.70;38.80;;;;;;3051961;19;4751;-33
2024/03/20 05:01:49;;;;;;;;;;;21.80;38.80;;;;;;3030549;19;4727;-34
2024/03/20 05:02:49;;;;;;;;;;;21.70;38.80;;;;;;3050898;19;4669;-30
2024/03/20 05:03:50;;;;;;;;;;;21.70;38.80;;;;;;3041632;19;4843;-31
2024/03/20 05:04:50;;;;;;;;;;;21.70;39.00;;;;;;3049346;19;4674;-35
2024/03/20 05:05:51;;;;;;;;;;;21.70;38.80;;;;;;3052185;19;4707;-29
2024/03/20 05:06:52;;;;;;;;;;;21.70;38.90;;;;;;3030389;19;4781;-27
2024/03/20 05:07:52;;;;;;;;;;;21.70;39.10;;;;;;3052784;19;4737;-24
2024/03/20 05:08:53;;;;;;;;;;;21.70;38.90;;;;;;3052176;19;4853;-28
2024/03/20 05:09:54;;;;;;;;;;;21.70;38.90;;;;;;3030963;19;4696;-27
2024/03/20 05:10:54;;;;;;;;;;;21.70;39.00;;;;;;3052826;19;4643;-27
2024/03/20 05:11:56;;;;;;;;;;;21.70;39.00;;;;;;3031283;19;4657;-26
2024/03/20 05:12:56;;;;;;;;;;;21.60;39.00;;;;;;3052412;19;4617;-24
2024/03/20 05:13:57;;;;;;;;;;;21.60;39.10;;;;;;3052998;19;4727;-26
2024/03/20 05:14:58;;;;;;;;;;;21.60;39.00;;;;;;3030056;19;4629;-24
2024/03/20 05:15:59;;;;;;;;;;;21.60;39.10;;;;;;3052971;19;4746;-26
2024/03/20 05:17:00;;;;;;;;;;;21.60;39.20;;;;;;3051221;19;4734;-24
2024/03/20 05:18:01;;;;;;;;;;;21.60;39.10;;;;;;3030967;19;4696;-24
2024/03/20 05:19:01;;;;;;;;;;;21.50;39.00;;;;;;3051996;19;4670;-26
2024/03/20 05:20:04;;;;;;;;;;;21.50;39.10;;;;;;3031572;19;4629;-27
2024/03/20 05:21:05;;;;;;;;;;;21.50;39.10;;;;;;3052136;19;4628;-24
2024/03/20 05:22:06;;;;;;;;;;;21.50;39.10;;;;;;3051262;19;4667;-24
2024/03/20 05:23:06;;;;;;;;;;;21.50;39.20;;;;;;3030023;19;4702;-26
2024/03/20 05:24:07;;;;;;;;;;;21.40;39.10;;;;;;3052246;19;1048;-24
2024/03/20 05:25:08;;;;;;;;;;;21.40;39.10;;;;;;3051501;19;4671;-25
2024/03/20 05:26:09;;;;;;;;;;;21.40;39.40;;;;;;3029832;19;4672;-26
2024/03/20 05:27:09;;;;;;;;;;;21.50;39.50;;;;;;3050644;19;4802;-24
2024/03/20 05:28:10;;;;;;;;;;;21.50;39.50;;;;;;3029302;19;4874;-24
2024/03/20 05:29:11;;;;;;;;;;;21.50;39.40;;;;;;3050524;19;4737;-24
2024/03/20 05:30:12;;;;;;;;;;;21.60;39.30;;;;;;3052687;19;4753;-28
2024/03/20 05:31:26;;;;;;;;;;;21.60;39.30;;;;;;3030104;19;4595;-23
2024/03/20 05:32:27;;;;;;;;;;;21.60;39.10;;;;;;3053270;19;4711;-27
2024/03/20 05:33:28;;;;;;;;;;;21.70;39.00;;;;;;3029185;19;4836;-25
2024/03/20 05:34:29;;;;;;;;;;;21.70;38.90;;;;;;3053330;19;4725;-24
2024/03/20 05:35:29;;;;;;;;;;;21.70;38.90;;;;;;3051102;19;4778;-26
2024/03/20 05:36:30;;;;;;;;;;;21.70;38.90;;;;;;3031569;19;4516;-26
2024/03/20 05:37:31;;;;;;;;;;;21.70;38.90;;;;;;3050910;19;4758;-32
2024/03/20 05:38:31;;;;;;;;;;;21.60;38.80;;;;;;3030937;19;4723;-33
2024/03/20 05:39:33;;;;;;;;;;;21.70;38.90;;;;;;3051957;19;4714;-34
2024/03/20 05:40:34;;;;;;;;;;;21.70;38.80;;;;;;3050850;19;4710;-31
2024/03/20 05:41:35;;;;;;;;;;;21.60;38.80;;;;;;3031430;19;4652;-32
2024/03/20 05:42:36;;;;;;;;;;;21.60;38.90;;;;;;3049874;19;4759;-30
2024/03/20 05:43:37;;;;;;;;;;;21.60;38.80;;;;;;3050850;19;4745;-32
2024/03/20 05:44:37;;;;;;;;;;;21.60;38.70;;;;;;3030030;19;4632;-33
2024/03/20 05:45:38;;;;;;;;;;;21.60;38.80;;;;;;3050835;19;4681;-30
2024/03/20 05:46:39;;;;;;;;;;;21.50;38.80;;;;;;3029700;19;4754;-32
2024/03/20 05:47:40;;;;;;;;;;;21.60;38.80;;;;;;3052817;19;4730;-31
2024/03/20 05:48:42;;;;;;;;;;;21.50;38.80;;;;;;3050533;19;4760;-34
2024/03/20 05:49:43;;;;;;;;;;;21.50;38.90;;;;;;3031303;19;4664;-31
2024/03/20 05:50:43;;;;;;;;;;;21.50;38.80;;;;;;3051532;19;4724;-31
2024/03/20 05:51:45;;;;;;;;;;;21.50;38.80;;;;;;3053401;19;4686;-32
2024/03/20 05:52:46;;;;;;;;;;;21.40;38.80;;;;;;3029771;19;4608;-32
2024/03/20 05:53:47;;;;;;;;;;;21.40;38.90;;;;;;3052627;19;4711;-31
2024/03/20 05:54:47;;;;;;;;;;;21.40;38.90;;;;;;3031334;19;4745;-35
2024/03/20 05:55:50;;;;;;;;;;;21.40;38.80;;;;;;3052585;19;4743;-35
2024/03/20 05:56:50;;;;;;;;;;;21.40;39.00;;;;;;3050590;19;4719;-33
2024/03/20 05:57:51;;;;;;;;;;;21.40;39.20;;;;;;3029289;19;4897;-35
2024/03/20 05:58:52;;;;;;;;;;;21.40;39.30;;;;;;3050694;19;4823;-33
2024/03/20 05:59:52;;;;;;;;;;;21.50;39.30;;;;;;3030217;19;4834;-32
2024/03/20 06:00:53;;;;;;;;;;;21.50;39.20;;;;;;3051130;19;4765;-30